PAA1135 OMDB-VABB
Flight info
| Callsign | PAA1135 |
|---|---|
| Flight time | 2h 24m |
| Altitude | 39000 |
| Route | IVURO M677 LALDO B505 NADSO A777 VAXIM L301 KARKU M638 EXOLU POKON2A |
| Aircraft | B741/H-SDFHIRWXY/L |
Departure
| Time | 2026-05-04 10:35 |
|---|---|
| Airport | Dubai International Airport (OMDB) |
Arrival
| Time | 2026-05-04 12:59 |
|---|---|
| Airport | Chhatrapati Shivaji Maharaj International Airport (VABB) |
| Time | Latitude | Longitude | Altitude | Speed | Heading |
|---|---|---|---|---|---|
| 2026-05-04 10:16 | 25.24353 | 55.37368 | 40 ft | 0 kts | 211° |
| 2026-05-04 10:25 | 25.24391 | 55.37394 | 40 ft | 1 kts | 211° |
| 2026-05-04 10:25 | 25.24399 | 55.37400 | 40 ft | 2 kts | 207° |
| 2026-05-04 10:25 | 25.24413 | 55.37404 | 40 ft | 2 kts | 185° |
| 2026-05-04 10:25 | 25.24428 | 55.37403 | 40 ft | 2 kts | 166° |
| 2026-05-04 10:26 | 25.24442 | 55.37397 | 40 ft | 2 kts | 147° |
| 2026-05-04 10:26 | 25.24453 | 55.37386 | 40 ft | 2 kts | 128° |
| 2026-05-04 10:26 | 25.24457 | 55.37380 | 40 ft | 0 kts | 122° |
| 2026-05-04 10:26 | 25.24460 | 55.37376 | 40 ft | 0 kts | 121° |
| 2026-05-04 10:28 | 25.24440 | 55.37415 | 40 ft | 13 kts | 111° |
| 2026-05-04 10:29 | 25.24429 | 55.37516 | 40 ft | 13 kts | 93° |
| 2026-05-04 10:29 | 25.24420 | 55.37620 | 40 ft | 12 kts | 106° |
| 2026-05-04 10:29 | 25.24385 | 55.37692 | 40 ft | 13 kts | 121° |
| 2026-05-04 10:29 | 25.24315 | 55.37817 | 40 ft | 20 kts | 121° |
| 2026-05-04 10:30 | 25.24245 | 55.37945 | 40 ft | 18 kts | 121° |
| 2026-05-04 10:30 | 25.24179 | 55.38063 | 40 ft | 17 kts | 121° |
| 2026-05-04 10:30 | 25.24109 | 55.38189 | 40 ft | 25 kts | 121° |
| 2026-05-04 10:30 | 25.23995 | 55.38393 | 40 ft | 33 kts | 121° |
| 2026-05-04 10:31 | 25.23871 | 55.38613 | 40 ft | 33 kts | 121° |
| 2026-05-04 10:31 | 25.23753 | 55.38832 | 40 ft | 33 kts | 121° |
| 2026-05-04 10:32 | 25.23532 | 55.39588 | 40 ft | 17 kts | 303° |
| 2026-05-04 10:33 | 25.23568 | 55.39524 | 40 ft | 0 kts | 301° |
| 2026-05-04 10:33 | 25.23569 | 55.39522 | 40 ft | 0 kts | 301° |
| 2026-05-04 10:33 | 25.23570 | 55.39519 | 40 ft | 0 kts | 301° |
| 2026-05-04 10:34 | 25.23590 | 55.39484 | 40 ft | 14 kts | 301° |
| 2026-05-04 10:34 | 25.23700 | 55.39291 | 40 ft | 56 kts | 301° |
| 2026-05-04 10:34 | 25.24024 | 55.38709 | 40 ft | 120 kts | 300° |
| 2026-05-04 10:34 | 25.24560 | 55.37761 | 103 ft | 163 kts | 302° |
| 2026-05-04 10:35 | 25.25193 | 55.36731 | 672 ft | 160 kts | 302° |
| 2026-05-04 10:35 | 25.25804 | 55.35724 | 1199 ft | 162 kts | 301° |
| 2026-05-04 10:35 | 25.26489 | 55.34650 | 1482 ft | 181 kts | 302° |
| 2026-05-04 10:35 | 25.27475 | 55.33712 | 1666 ft | 198 kts | 340° |
| 2026-05-04 10:36 | 25.28872 | 55.33739 | 1867 ft | 215 kts | 21° |
| 2026-05-04 10:36 | 25.30086 | 55.34762 | 2045 ft | 230 kts | 54° |
| 2026-05-04 10:36 | 25.30935 | 55.36314 | 2257 ft | 241 kts | 55° |
| 2026-05-04 10:36 | 25.31870 | 55.37899 | 2439 ft | 255 kts | 65° |
| 2026-05-04 10:37 | 25.32190 | 55.39850 | 2618 ft | 268 kts | 98° |
| 2026-05-04 10:37 | 25.31757 | 55.41896 | 2806 ft | 281 kts | 108° |
| 2026-05-04 10:37 | 25.31406 | 55.44022 | 3411 ft | 280 kts | 94° |
| 2026-05-04 10:37 | 25.31472 | 55.46202 | 3869 ft | 286 kts | 88° |
| 2026-05-04 10:39 | 25.31883 | 55.59407 | 7330 ft | 290 kts | 91° |
| 2026-05-04 10:39 | 25.31925 | 55.61634 | 7932 ft | 290 kts | 91° |
| 2026-05-04 10:39 | 25.31967 | 55.63874 | 8497 ft | 291 kts | 91° |
| 2026-05-04 10:40 | 25.32006 | 55.66103 | 9061 ft | 292 kts | 92° |
| 2026-05-04 10:40 | 25.32037 | 55.68344 | 9658 ft | 293 kts | 92° |
| 2026-05-04 10:40 | 25.32069 | 55.70609 | 9989 ft | 307 kts | 91° |
| 2026-05-04 10:40 | 25.32107 | 55.73051 | 10116 ft | 326 kts | 91° |
| 2026-05-04 10:41 | 25.32151 | 55.75628 | 10240 ft | 342 kts | 91° |
| 2026-05-04 10:41 | 25.32197 | 55.78293 | 10362 ft | 356 kts | 91° |
| 2026-05-04 10:41 | 25.32246 | 55.81078 | 10486 ft | 367 kts | 91° |
| 2026-05-04 10:41 | 25.32296 | 55.83945 | 10608 ft | 377 kts | 91° |
| 2026-05-04 10:42 | 25.32346 | 55.86834 | 10729 ft | 384 kts | 91° |
| 2026-05-04 10:42 | 25.32397 | 55.89810 | 10858 ft | 390 kts | 91° |
| 2026-05-04 10:42 | 25.32449 | 55.92823 | 11166 ft | 390 kts | 91° |
| 2026-05-04 10:42 | 25.32499 | 55.95805 | 11449 ft | 391 kts | 90° |
| 2026-05-04 10:43 | 25.32549 | 55.98813 | 11727 ft | 392 kts | 90° |
| 2026-05-04 10:44 | 25.32535 | 56.19821 | 13534 ft | 402 kts | 97° |
| 2026-05-04 10:45 | 25.32268 | 56.22875 | 13813 ft | 403 kts | 97° |
| 2026-05-04 10:45 | 25.31989 | 56.25960 | 14100 ft | 405 kts | 97° |
| 2026-05-04 10:45 | 25.31712 | 56.29078 | 14401 ft | 407 kts | 97° |
| 2026-05-04 10:45 | 25.31442 | 56.32209 | 14716 ft | 409 kts | 97° |
| 2026-05-04 10:46 | 25.31179 | 56.35318 | 15034 ft | 411 kts | 97° |
| 2026-05-04 10:46 | 25.30916 | 56.38450 | 15359 ft | 413 kts | 97° |
| 2026-05-04 10:46 | 25.30725 | 56.41659 | 15691 ft | 416 kts | 95° |
| 2026-05-04 10:46 | 25.30612 | 56.44852 | 16034 ft | 418 kts | 94° |
| 2026-05-04 10:47 | 25.30523 | 56.48055 | 16385 ft | 421 kts | 94° |
| 2026-05-04 10:47 | 25.30433 | 56.51308 | 16752 ft | 423 kts | 94° |
| 2026-05-04 10:47 | 25.30339 | 56.54546 | 17135 ft | 426 kts | 94° |
| 2026-05-04 10:47 | 25.30219 | 56.57806 | 17522 ft | 428 kts | 97° |
| 2026-05-04 10:49 | 25.22752 | 56.79542 | 20796 ft | 445 kts | 116° |
| 2026-05-04 10:49 | 25.21537 | 56.82718 | 21294 ft | 449 kts | 116° |
| 2026-05-04 10:50 | 25.20327 | 56.85894 | 21779 ft | 453 kts | 116° |
| 2026-05-04 10:51 | 25.11601 | 57.08852 | 25305 ft | 476 kts | 116° |
| 2026-05-04 10:52 | 25.10320 | 57.12213 | 25823 ft | 480 kts | 116° |
| 2026-05-04 10:52 | 25.09028 | 57.15601 | 26299 ft | 485 kts | 116° |
| 2026-05-04 10:52 | 25.07705 | 57.19065 | 26795 ft | 490 kts | 116° |
| 2026-05-04 10:54 | 24.98147 | 57.44017 | 29783 ft | 518 kts | 116° |
| 2026-05-04 10:54 | 24.96764 | 57.47621 | 30289 ft | 517 kts | 116° |
| 2026-05-04 10:56 | 24.86939 | 57.73060 | 33043 ft | 518 kts | 116° |
| 2026-05-04 10:56 | 24.85517 | 57.76689 | 33378 ft | 518 kts | 116° |
| 2026-05-04 10:56 | 24.84097 | 57.80317 | 33769 ft | 517 kts | 116° |
| 2026-05-04 10:57 | 24.82637 | 57.83937 | 34067 ft | 518 kts | 117° |
| 2026-05-04 10:57 | 24.81107 | 57.87518 | 34443 ft | 516 kts | 118° |
| 2026-05-04 10:57 | 24.79563 | 57.91038 | 34822 ft | 514 kts | 118° |
| 2026-05-04 10:57 | 24.78008 | 57.94559 | 35160 ft | 513 kts | 118° |
| 2026-05-04 10:58 | 24.76438 | 57.98117 | 35473 ft | 513 kts | 118° |
| 2026-05-04 10:58 | 24.74902 | 58.01610 | 35807 ft | 511 kts | 118° |
| 2026-05-04 10:58 | 24.73352 | 58.05145 | 36101 ft | 510 kts | 118° |
| 2026-05-04 10:58 | 24.71823 | 58.08640 | 36404 ft | 509 kts | 118° |
| 2026-05-04 10:59 | 24.70302 | 58.12117 | 36621 ft | 509 kts | 118° |
| 2026-05-04 10:59 | 24.67203 | 58.19203 | 36696 ft | 514 kts | 118° |
| 2026-05-04 11:00 | 24.64134 | 58.26224 | 36694 ft | 508 kts | 118° |
| 2026-05-04 11:02 | 24.51884 | 58.54214 | 36697 ft | 509 kts | 118° |
| 2026-05-04 11:05 | 24.28620 | 59.06464 | 36697 ft | 511 kts | 118° |
| 2026-05-04 11:06 | 24.25487 | 59.13460 | 36697 ft | 511 kts | 118° |
| 2026-05-04 11:06 | 24.22367 | 59.20429 | 36698 ft | 511 kts | 118° |
| 2026-05-04 11:10 | 24.00521 | 59.69165 | 36695 ft | 510 kts | 119° |
| 2026-05-04 11:12 | 23.87847 | 59.96879 | 36698 ft | 511 kts | 119° |
| 2026-05-04 11:12 | 23.84672 | 60.03840 | 36697 ft | 510 kts | 119° |
| 2026-05-04 11:13 | 23.81508 | 60.10772 | 36698 ft | 511 kts | 119° |
| 2026-05-04 11:13 | 23.78354 | 60.17679 | 36697 ft | 511 kts | 119° |
| 2026-05-04 11:14 | 23.77836 | 60.18813 | 36696 ft | 511 kts | 119° |
| 2026-05-04 11:16 | 23.62543 | 60.52275 | 36696 ft | 512 kts | 118° |
| 2026-05-04 11:16 | 23.59365 | 60.59224 | 36697 ft | 510 kts | 118° |
| 2026-05-04 11:17 | 23.56213 | 60.66113 | 36696 ft | 510 kts | 119° |
| 2026-05-04 11:19 | 23.43375 | 60.93652 | 36697 ft | 511 kts | 119° |
| 2026-05-04 11:19 | 23.40157 | 61.00552 | 36696 ft | 510 kts | 119° |
| 2026-05-04 11:20 | 23.36954 | 61.07419 | 36697 ft | 512 kts | 119° |
| 2026-05-04 11:20 | 23.33739 | 61.14316 | 36697 ft | 512 kts | 118° |
| 2026-05-04 11:22 | 23.29873 | 61.41132 | 36697 ft | 517 kts | 96° |
| 2026-05-04 11:22 | 23.29553 | 61.45038 | 36697 ft | 517 kts | 96° |
| 2026-05-04 11:23 | 23.28892 | 61.52763 | 36697 ft | 517 kts | 96° |
| 2026-05-04 11:25 | 23.26429 | 61.79983 | 36697 ft | 517 kts | 97° |
| 2026-05-04 11:25 | 23.25701 | 61.87698 | 36697 ft | 517 kts | 97° |
| 2026-05-04 11:27 | 23.22425 | 62.22661 | 36697 ft | 517 kts | 97° |
| 2026-05-04 11:28 | 23.21700 | 62.30405 | 36697 ft | 517 kts | 97° |
| 2026-05-04 11:28 | 23.20973 | 62.38175 | 36697 ft | 517 kts | 97° |
| 2026-05-04 11:29 | 23.20248 | 62.45915 | 36697 ft | 517 kts | 97° |
| 2026-05-04 11:29 | 23.19520 | 62.53692 | 36697 ft | 517 kts | 97° |
| 2026-05-04 11:33 | 23.14162 | 63.07904 | 36674 ft | 513 kts | 97° |
| 2026-05-04 11:33 | 23.13391 | 63.15598 | 36642 ft | 513 kts | 97° |
| 2026-05-04 11:34 | 23.12620 | 63.23295 | 36638 ft | 513 kts | 97° |
| 2026-05-04 11:34 | 23.11855 | 63.30947 | 36638 ft | 513 kts | 96° |
| 2026-05-04 11:35 | 23.11085 | 63.38642 | 36638 ft | 513 kts | 96° |
| 2026-05-04 11:35 | 23.10313 | 63.46347 | 36638 ft | 513 kts | 96° |
| 2026-05-04 11:36 | 23.09542 | 63.54048 | 36638 ft | 513 kts | 96° |
| 2026-05-04 11:36 | 23.08772 | 63.61749 | 36638 ft | 513 kts | 96° |
| 2026-05-04 11:37 | 23.07989 | 63.69445 | 36637 ft | 513 kts | 97° |
| 2026-05-04 11:37 | 23.07165 | 63.77129 | 36638 ft | 513 kts | 97° |
| 2026-05-04 11:38 | 23.06266 | 63.84756 | 36634 ft | 512 kts | 103° |
| 2026-05-04 11:38 | 23.04135 | 63.92119 | 36639 ft | 511 kts | 113° |
| 2026-05-04 11:39 | 23.01417 | 63.99204 | 36638 ft | 510 kts | 114° |
| 2026-05-04 11:41 | 22.92001 | 64.23818 | 36638 ft | 502 kts | 113° |
| 2026-05-04 11:41 | 22.89365 | 64.30796 | 36638 ft | 501 kts | 113° |
| 2026-05-04 11:42 | 22.86740 | 64.37749 | 36638 ft | 500 kts | 113° |
| 2026-05-04 11:42 | 22.84099 | 64.44743 | 36638 ft | 500 kts | 113° |
| 2026-05-04 11:43 | 22.81471 | 64.51701 | 36638 ft | 500 kts | 113° |
| 2026-05-04 11:43 | 22.78839 | 64.58665 | 36637 ft | 500 kts | 113° |
| 2026-05-04 11:44 | 22.76220 | 64.65593 | 36637 ft | 500 kts | 114° |
| 2026-05-04 11:44 | 22.73559 | 64.72528 | 36638 ft | 500 kts | 114° |
| 2026-05-04 11:45 | 22.70875 | 64.79467 | 36638 ft | 500 kts | 114° |
| 2026-05-04 11:45 | 22.68182 | 64.86439 | 36638 ft | 500 kts | 114° |
| 2026-05-04 11:46 | 22.65522 | 64.93332 | 36638 ft | 500 kts | 114° |
| 2026-05-04 11:46 | 22.62842 | 65.00281 | 36638 ft | 501 kts | 114° |
| 2026-05-04 11:47 | 22.60159 | 65.07234 | 36638 ft | 501 kts | 114° |
| 2026-05-04 11:47 | 22.57486 | 65.14162 | 36638 ft | 500 kts | 113° |
| 2026-05-04 11:48 | 22.54796 | 65.21133 | 36638 ft | 501 kts | 113° |
| 2026-05-04 11:48 | 22.52127 | 65.28046 | 36638 ft | 501 kts | 113° |
| 2026-05-04 11:49 | 22.49457 | 65.34962 | 36638 ft | 501 kts | 113° |
| 2026-05-04 11:49 | 22.46772 | 65.41912 | 36638 ft | 501 kts | 113° |
| 2026-05-04 11:50 | 22.44098 | 65.48835 | 36638 ft | 500 kts | 113° |
| 2026-05-04 11:50 | 22.41427 | 65.55748 | 36638 ft | 501 kts | 113° |
| 2026-05-04 11:51 | 22.38744 | 65.62692 | 36638 ft | 500 kts | 113° |
| 2026-05-04 11:51 | 22.36067 | 65.69576 | 36638 ft | 500 kts | 114° |
| 2026-05-04 11:52 | 22.33334 | 65.76495 | 36638 ft | 501 kts | 114° |
| 2026-05-04 11:52 | 22.30612 | 65.83385 | 36638 ft | 501 kts | 114° |
| 2026-05-04 11:53 | 22.27886 | 65.90294 | 36638 ft | 501 kts | 114° |
| 2026-05-04 11:53 | 22.25166 | 65.97193 | 36638 ft | 501 kts | 114° |
| 2026-05-04 11:55 | 22.14279 | 66.24797 | 36638 ft | 501 kts | 114° |
| 2026-05-04 11:56 | 22.11557 | 66.31696 | 36638 ft | 501 kts | 114° |
| 2026-05-04 11:56 | 22.08845 | 66.38567 | 36638 ft | 501 kts | 114° |
| 2026-05-04 11:57 | 22.06105 | 66.45473 | 36638 ft | 500 kts | 115° |
| 2026-05-04 11:57 | 22.03266 | 66.52322 | 36638 ft | 500 kts | 114° |
| 2026-05-04 11:58 | 22.00529 | 66.59213 | 36638 ft | 501 kts | 113° |
| 2026-05-04 11:58 | 21.97891 | 66.66080 | 36637 ft | 500 kts | 113° |
| 2026-05-04 11:59 | 21.95211 | 66.73009 | 36638 ft | 500 kts | 114° |
| 2026-05-04 11:59 | 21.92583 | 66.79761 | 36638 ft | 501 kts | 114° |
| 2026-05-04 12:00 | 21.89881 | 66.86707 | 36638 ft | 500 kts | 114° |
| 2026-05-04 12:00 | 21.87196 | 66.93624 | 36638 ft | 501 kts | 114° |
| 2026-05-04 12:01 | 21.84535 | 67.00485 | 36638 ft | 501 kts | 114° |
| 2026-05-04 12:02 | 21.75266 | 67.24361 | 36638 ft | 504 kts | 114° |
| 2026-05-04 12:03 | 21.72560 | 67.31327 | 36638 ft | 504 kts | 113° |
| 2026-05-04 12:03 | 21.69858 | 67.38283 | 36638 ft | 503 kts | 113° |
| 2026-05-04 12:04 | 21.67149 | 67.45256 | 36638 ft | 504 kts | 113° |
| 2026-05-04 12:04 | 21.64455 | 67.52188 | 36638 ft | 504 kts | 113° |
| 2026-05-04 12:05 | 21.61763 | 67.59113 | 36638 ft | 503 kts | 113° |
| 2026-05-04 12:05 | 21.59062 | 67.66058 | 36637 ft | 504 kts | 114° |
| 2026-05-04 12:06 | 21.56314 | 67.73017 | 36638 ft | 504 kts | 114° |
| 2026-05-04 12:06 | 21.53587 | 67.79878 | 36638 ft | 503 kts | 114° |
| 2026-05-04 12:07 | 21.50825 | 67.86838 | 36638 ft | 503 kts | 114° |
| 2026-05-04 12:07 | 21.48081 | 67.93761 | 36638 ft | 504 kts | 114° |
| 2026-05-04 12:08 | 21.45349 | 68.00656 | 36638 ft | 504 kts | 114° |
| 2026-05-04 12:08 | 21.42609 | 68.07569 | 36638 ft | 503 kts | 114° |
| 2026-05-04 12:09 | 21.39867 | 68.14483 | 36638 ft | 504 kts | 114° |
| 2026-05-04 12:09 | 21.37128 | 68.21391 | 36638 ft | 503 kts | 114° |
| 2026-05-04 12:10 | 21.34384 | 68.28309 | 36638 ft | 504 kts | 114° |
| 2026-05-04 12:10 | 21.31663 | 68.35168 | 36638 ft | 504 kts | 114° |
| 2026-05-04 12:11 | 21.28918 | 68.42087 | 36638 ft | 503 kts | 114° |
| 2026-05-04 12:11 | 21.26199 | 68.48940 | 36638 ft | 504 kts | 114° |
| 2026-05-04 12:12 | 21.23445 | 68.55878 | 36638 ft | 504 kts | 114° |
| 2026-05-04 12:12 | 21.20719 | 68.62746 | 36638 ft | 504 kts | 114° |
| 2026-05-04 12:14 | 21.09649 | 68.90160 | 36722 ft | 503 kts | 114° |
| 2026-05-04 12:15 | 21.06887 | 68.96986 | 36726 ft | 499 kts | 114° |
| 2026-05-04 12:15 | 21.04143 | 69.03769 | 36726 ft | 495 kts | 114° |
| 2026-05-04 12:16 | 21.01430 | 69.10477 | 36726 ft | 491 kts | 114° |
| 2026-05-04 12:16 | 20.98726 | 69.17157 | 36726 ft | 487 kts | 114° |
| 2026-05-04 12:17 | 20.96047 | 69.23771 | 36727 ft | 487 kts | 114° |
| 2026-05-04 12:17 | 20.93397 | 69.30315 | 36727 ft | 487 kts | 114° |
| 2026-05-04 12:18 | 20.90710 | 69.36951 | 36726 ft | 487 kts | 114° |
| 2026-05-04 12:18 | 20.88051 | 69.43520 | 36726 ft | 487 kts | 114° |
| 2026-05-04 12:19 | 20.85369 | 69.50147 | 36726 ft | 487 kts | 114° |
| 2026-05-04 12:19 | 20.82778 | 69.56548 | 36726 ft | 487 kts | 113° |
| 2026-05-04 12:20 | 20.80095 | 69.63184 | 36726 ft | 487 kts | 114° |
| 2026-05-04 12:20 | 20.77378 | 69.69843 | 36726 ft | 487 kts | 114° |
| 2026-05-04 12:21 | 20.74645 | 69.76460 | 36726 ft | 487 kts | 114° |
| 2026-05-04 12:21 | 20.71933 | 69.83025 | 36726 ft | 487 kts | 114° |
| 2026-05-04 12:22 | 20.69214 | 69.89620 | 36726 ft | 487 kts | 114° |
| 2026-05-04 12:22 | 20.66483 | 69.96240 | 36726 ft | 487 kts | 114° |
| 2026-05-04 12:23 | 20.63757 | 70.02850 | 36726 ft | 487 kts | 114° |
| 2026-05-04 12:23 | 20.61022 | 70.09483 | 36726 ft | 487 kts | 114° |
| 2026-05-04 12:24 | 20.58304 | 70.16071 | 36726 ft | 487 kts | 114° |
| 2026-05-04 12:24 | 20.55575 | 70.22687 | 36726 ft | 487 kts | 114° |
| 2026-05-04 12:25 | 20.52859 | 70.29268 | 36726 ft | 487 kts | 114° |
| 2026-05-04 12:25 | 20.50132 | 70.35877 | 36726 ft | 487 kts | 114° |
| 2026-05-04 12:26 | 20.47409 | 70.42473 | 36726 ft | 487 kts | 114° |
| 2026-05-04 12:26 | 20.44680 | 70.49082 | 36726 ft | 487 kts | 114° |
| 2026-05-04 12:27 | 20.41957 | 70.55675 | 36726 ft | 487 kts | 114° |
| 2026-05-04 12:27 | 20.39237 | 70.62262 | 36726 ft | 487 kts | 114° |
| 2026-05-04 12:28 | 20.36865 | 70.67988 | 36726 ft | 487 kts | 115° |
| 2026-05-04 12:28 | 20.33686 | 70.75543 | 36726 ft | 487 kts | 115° |
| 2026-05-04 12:29 | 20.30919 | 70.82112 | 36726 ft | 487 kts | 115° |
| 2026-05-04 12:29 | 20.28177 | 70.88631 | 36726 ft | 487 kts | 115° |
| 2026-05-04 12:30 | 20.25386 | 70.95269 | 36726 ft | 488 kts | 115° |
| 2026-05-04 12:30 | 20.22627 | 71.01833 | 36726 ft | 489 kts | 115° |
| 2026-05-04 12:31 | 20.19867 | 71.08397 | 36727 ft | 490 kts | 115° |
| 2026-05-04 12:31 | 20.17093 | 71.14991 | 36726 ft | 489 kts | 115° |
| 2026-05-04 12:32 | 20.12922 | 71.24905 | 36730 ft | 489 kts | 115° |
| 2026-05-04 12:33 | 20.10138 | 71.31521 | 36735 ft | 489 kts | 115° |
| 2026-05-04 12:33 | 20.07353 | 71.38140 | 36740 ft | 489 kts | 115° |
| 2026-05-04 12:34 | 20.04578 | 71.44733 | 36745 ft | 489 kts | 115° |
| 2026-05-04 12:34 | 20.01809 | 71.51310 | 36750 ft | 489 kts | 115° |
| 2026-05-04 12:35 | 19.99038 | 71.57897 | 36531 ft | 494 kts | 115° |
| 2026-05-04 12:35 | 19.97642 | 71.61214 | 36043 ft | 493 kts | 115° |
| 2026-05-04 12:35 | 19.96246 | 71.64539 | 35549 ft | 489 kts | 114° |
| 2026-05-04 12:35 | 19.94869 | 71.67806 | 35057 ft | 485 kts | 115° |
| 2026-05-04 12:36 | 19.93479 | 71.71068 | 34563 ft | 481 kts | 115° |
| 2026-05-04 12:36 | 19.92113 | 71.74258 | 34074 ft | 478 kts | 115° |
| 2026-05-04 12:36 | 19.90731 | 71.77480 | 33577 ft | 474 kts | 115° |
| 2026-05-04 12:36 | 19.89440 | 71.80491 | 33110 ft | 470 kts | 115° |
| 2026-05-04 12:37 | 19.88085 | 71.83653 | 32615 ft | 467 kts | 115° |
| 2026-05-04 12:37 | 19.86746 | 71.86777 | 32123 ft | 463 kts | 115° |
| 2026-05-04 12:37 | 19.85404 | 71.89912 | 31625 ft | 460 kts | 115° |
| 2026-05-04 12:37 | 19.84100 | 71.92956 | 31138 ft | 457 kts | 115° |
| 2026-05-04 12:38 | 19.82780 | 71.96036 | 30642 ft | 453 kts | 115° |
| 2026-05-04 12:38 | 19.81492 | 71.99043 | 30153 ft | 450 kts | 115° |
| 2026-05-04 12:38 | 19.80204 | 72.02049 | 29662 ft | 447 kts | 115° |
| 2026-05-04 12:38 | 19.78872 | 72.05019 | 29166 ft | 443 kts | 120° |
| 2026-05-04 12:39 | 19.77114 | 72.07691 | 28671 ft | 438 kts | 131° |
| 2026-05-04 12:39 | 19.75036 | 72.09961 | 28190 ft | 435 kts | 137° |
| 2026-05-04 12:39 | 19.72786 | 72.12131 | 27693 ft | 432 kts | 139° |
| 2026-05-04 12:39 | 19.70558 | 72.14211 | 27204 ft | 429 kts | 139° |
| 2026-05-04 12:40 | 19.68313 | 72.16306 | 26708 ft | 426 kts | 139° |
| 2026-05-04 12:40 | 19.66122 | 72.18353 | 26221 ft | 423 kts | 139° |
| 2026-05-04 12:40 | 19.63934 | 72.20405 | 25730 ft | 420 kts | 139° |
| 2026-05-04 12:40 | 19.61776 | 72.22441 | 25240 ft | 416 kts | 138° |
| 2026-05-04 12:41 | 19.59633 | 72.24468 | 24749 ft | 412 kts | 138° |
| 2026-05-04 12:41 | 19.57503 | 72.26489 | 24254 ft | 407 kts | 138° |
| 2026-05-04 12:41 | 19.55434 | 72.28454 | 23767 ft | 402 kts | 138° |
| 2026-05-04 12:41 | 19.53371 | 72.30413 | 23275 ft | 396 kts | 138° |
| 2026-05-04 12:42 | 19.51326 | 72.32355 | 22781 ft | 391 kts | 138° |
| 2026-05-04 12:42 | 19.49313 | 72.34267 | 22254 ft | 387 kts | 138° |
| 2026-05-04 12:42 | 19.47324 | 72.36156 | 21712 ft | 383 kts | 138° |
| 2026-05-04 12:42 | 19.45367 | 72.38013 | 21173 ft | 378 kts | 138° |
| 2026-05-04 12:43 | 19.43427 | 72.39856 | 20631 ft | 373 kts | 138° |
| 2026-05-04 12:43 | 19.41535 | 72.41652 | 20095 ft | 367 kts | 138° |
| 2026-05-04 12:43 | 19.39652 | 72.43439 | 19554 ft | 362 kts | 138° |
| 2026-05-04 12:43 | 19.37779 | 72.45216 | 19008 ft | 357 kts | 137° |
| 2026-05-04 12:44 | 19.35970 | 72.46932 | 18474 ft | 352 kts | 137° |
| 2026-05-04 12:44 | 19.34160 | 72.48650 | 17931 ft | 347 kts | 137° |
| 2026-05-04 12:44 | 19.32374 | 72.50345 | 17388 ft | 342 kts | 137° |
| 2026-05-04 12:44 | 19.30629 | 72.52000 | 16851 ft | 338 kts | 137° |
| 2026-05-04 12:45 | 19.28913 | 72.53627 | 16315 ft | 333 kts | 137° |
| 2026-05-04 12:45 | 19.27217 | 72.55235 | 15796 ft | 328 kts | 137° |
| 2026-05-04 12:45 | 19.25567 | 72.56803 | 15425 ft | 320 kts | 137° |
| 2026-05-04 12:45 | 19.24084 | 72.58554 | 15043 ft | 316 kts | 122° |
| 2026-05-04 12:46 | 19.23211 | 72.60646 | 14824 ft | 312 kts | 103° |
| 2026-05-04 12:46 | 19.22922 | 72.62917 | 14722 ft | 313 kts | 92° |
| 2026-05-04 12:46 | 19.22873 | 72.65234 | 14412 ft | 319 kts | 90° |
| 2026-05-04 12:46 | 19.22872 | 72.67570 | 13904 ft | 314 kts | 90° |
| 2026-05-04 12:47 | 19.22865 | 72.69859 | 13397 ft | 309 kts | 90° |
| 2026-05-04 12:47 | 19.22849 | 72.72129 | 12889 ft | 307 kts | 90° |
| 2026-05-04 12:47 | 19.22827 | 72.74362 | 12386 ft | 305 kts | 90° |
| 2026-05-04 12:47 | 19.22805 | 72.76583 | 11881 ft | 303 kts | 90° |
| 2026-05-04 12:48 | 19.22792 | 72.78812 | 11371 ft | 300 kts | 90° |
| 2026-05-04 12:48 | 19.22787 | 72.80999 | 10867 ft | 297 kts | 90° |
| 2026-05-04 12:48 | 19.22784 | 72.83147 | 10366 ft | 295 kts | 90° |
| 2026-05-04 12:48 | 19.22785 | 72.85297 | 9862 ft | 292 kts | 90° |
| 2026-05-04 12:49 | 19.22789 | 72.87443 | 9353 ft | 290 kts | 90° |
| 2026-05-04 12:49 | 19.22797 | 72.89557 | 8848 ft | 287 kts | 90° |
| 2026-05-04 12:49 | 19.22810 | 72.91635 | 8348 ft | 285 kts | 90° |
| 2026-05-04 12:49 | 19.22825 | 72.93727 | 7843 ft | 286 kts | 89° |
| 2026-05-04 12:50 | 19.22800 | 72.95836 | 7337 ft | 288 kts | 90° |
| 2026-05-04 12:50 | 19.22758 | 72.97931 | 6833 ft | 286 kts | 90° |
| 2026-05-04 12:50 | 19.22713 | 73.00005 | 6331 ft | 284 kts | 90° |
| 2026-05-04 12:50 | 19.22665 | 73.02106 | 5821 ft | 283 kts | 90° |
| 2026-05-04 12:51 | 19.22618 | 73.04177 | 5316 ft | 282 kts | 90° |
| 2026-05-04 12:51 | 19.22208 | 73.06163 | 4889 ft | 283 kts | 117° |
| 2026-05-04 12:51 | 19.20912 | 73.07719 | 4518 ft | 283 kts | 144° |
| 2026-05-04 12:51 | 19.19282 | 73.08823 | 4192 ft | 274 kts | 149° |
| 2026-05-04 12:52 | 19.17706 | 73.09820 | 4058 ft | 255 kts | 150° |
| 2026-05-04 12:52 | 19.16233 | 73.10751 | 4025 ft | 238 kts | 150° |
| 2026-05-04 12:52 | 19.14814 | 73.11471 | 3968 ft | 217 kts | 173° |
| 2026-05-04 12:52 | 19.13408 | 73.11256 | 3800 ft | 203 kts | 214° |
| 2026-05-04 12:53 | 19.12435 | 73.10220 | 3423 ft | 196 kts | 238° |
| 2026-05-04 12:53 | 19.11704 | 73.09045 | 3093 ft | 191 kts | 239° |
| 2026-05-04 12:53 | 19.10997 | 73.07879 | 2967 ft | 187 kts | 240° |
| 2026-05-04 12:53 | 19.10294 | 73.06718 | 2942 ft | 187 kts | 240° |
| 2026-05-04 12:54 | 19.09624 | 73.05559 | 2930 ft | 187 kts | 243° |
| 2026-05-04 12:54 | 19.09233 | 73.04278 | 2933 ft | 185 kts | 264° |
| 2026-05-04 12:54 | 19.09115 | 73.02956 | 2772 ft | 176 kts | 268° |
| 2026-05-04 12:54 | 19.09071 | 73.01702 | 2559 ft | 164 kts | 270° |
| 2026-05-04 12:55 | 19.09051 | 73.00564 | 2420 ft | 150 kts | 270° |
| 2026-05-04 12:55 | 19.09036 | 72.99465 | 2237 ft | 150 kts | 270° |
| 2026-05-04 12:55 | 19.09022 | 72.98400 | 2026 ft | 143 kts | 270° |
| 2026-05-04 12:55 | 19.09009 | 72.97354 | 1830 ft | 140 kts | 270° |
| 2026-05-04 12:56 | 19.08996 | 72.96333 | 1651 ft | 139 kts | 269° |
| 2026-05-04 12:56 | 19.08976 | 72.95303 | 1469 ft | 138 kts | 270° |
| 2026-05-04 12:56 | 19.08967 | 72.94292 | 1304 ft | 138 kts | 269° |
| 2026-05-04 12:56 | 19.08962 | 72.93273 | 1116 ft | 139 kts | 269° |
| 2026-05-04 12:57 | 19.08964 | 72.92248 | 899 ft | 141 kts | 266° |
| 2026-05-04 12:57 | 19.08935 | 72.91225 | 751 ft | 140 kts | 266° |
| 2026-05-04 12:57 | 19.08934 | 72.90196 | 543 ft | 140 kts | 266° |
| 2026-05-04 12:57 | 19.08908 | 72.89178 | 362 ft | 139 kts | 266° |
| 2026-05-04 12:58 | 19.08900 | 72.88147 | 176 ft | 140 kts | 266° |
| 2026-05-04 12:58 | 19.08880 | 72.87134 | 32 ft | 132 kts | 268° |
| 2026-05-04 12:58 | 19.08861 | 72.86323 | 37 ft | 91 kts | 267° |
| 2026-05-04 12:58 | 19.08852 | 72.85768 | 29 ft | 54 kts | 275° |
| 2026-05-04 12:59 | 19.08955 | 72.85498 | 29 ft | 21 kts | 324° |